Windham, New Hampshire
Current Conditions -  °F | °C
As of 5:54 AM on Wednesday 22 Oct 2014 (Local Time) from KLWM Reporting Station
Light Rain Light Rain  
Wind Chill: 50°   Ceiling: 600
Heat Index: 50°   Visibility: 5mi
Dew Point: 49°   Wind: 14mph
Humidity: 96%   Direction: 20°NNE
Pressure: 30.03"   Gusts: NA
Location:  42.8°N, 71.3°W
Report Text: KLWM 220954Z AUTO 02012KT 5SM -RA BR OVC006 10/09 A3003 RMK AO2 CIG 004V009 SLP167 P0003 T01000094
Loading
Personal Weather Stations






























Interactive Weather Map New forecast layout! Learn more

10-Day Weather Forecast

Advertisements
Track Severe Weather on mobile